createdAt,value
2023-04-06T00:00:21.089Z,50.95
2023-04-06T00:03:09.795Z,51.24
2023-04-06T00:05:38.218Z,51.10
2023-04-06T00:08:06.497Z,50.98
2023-04-06T00:10:34.824Z,51.25
2023-04-06T00:13:03.141Z,51.02
2023-04-06T00:15:31.643Z,50.91
2023-04-06T00:17:59.781Z,51.03
2023-04-06T00:20:28.002Z,51.21
2023-04-06T00:22:56.290Z,51.34
2023-04-06T00:25:24.756Z,51.62
2023-04-06T00:27:54.174Z,51.41
2023-04-06T00:30:22.620Z,51.45
2023-04-06T00:32:51.321Z,51.50
2023-04-06T00:35:19.864Z,51.54
2023-04-06T00:37:49.474Z,51.70
2023-04-06T00:40:17.902Z,51.76
2023-04-06T00:42:46.279Z,51.92
2023-04-06T00:45:14.689Z,51.96
2023-04-06T00:47:43.229Z,51.89
2023-04-06T00:50:12.124Z,51.80
2023-04-06T00:52:40.727Z,51.82
2023-04-06T00:55:09.778Z,51.87
2023-04-06T00:57:38.118Z,52.19
2023-04-06T01:00:06.937Z,52.47
2023-04-06T01:02:35.157Z,52.45
2023-04-06T01:05:03.731Z,52.23
2023-04-06T01:07:32.163Z,52.06
2023-04-06T01:10:00.584Z,51.98
2023-04-06T01:12:30.551Z,52.16
2023-04-06T01:14:58.874Z,52.10
2023-04-06T01:17:27.586Z,52.36
2023-04-06T01:19:56.019Z,52.46
2023-04-06T01:22:25.562Z,52.74
2023-04-06T01:24:53.975Z,52.82
2023-04-06T01:27:22.511Z,52.83
2023-04-06T01:29:50.828Z,52.93
2023-04-06T01:32:19.149Z,53.05
2023-04-06T01:34:47.518Z,52.82
2023-04-06T01:37:16.037Z,52.77
2023-04-06T01:39:45.897Z,52.85
2023-04-06T01:42:14.179Z,52.87
2023-04-06T01:44:42.506Z,52.59
2023-04-06T01:47:10.820Z,52.47
2023-04-06T01:49:39.981Z,52.52
2023-04-06T01:52:11.143Z,52.33
2023-04-06T01:54:39.325Z,52.45
2023-04-06T01:57:07.773Z,52.56
2023-04-06T01:59:36.695Z,52.59
2023-04-06T02:02:05.159Z,52.71
2023-04-06T02:04:33.438Z,52.71
2023-04-06T02:07:01.808Z,52.91
2023-04-06T02:09:30.113Z,52.72
2023-04-06T02:11:58.481Z,52.85
2023-04-06T02:14:27.376Z,52.92
2023-04-06T02:16:55.778Z,53.01
2023-04-06T02:19:24.054Z,53.20
2023-04-06T02:21:52.367Z,53.03
2023-04-06T02:24:26.361Z,52.83
2023-04-06T02:26:54.550Z,52.84
2023-04-06T02:29:22.718Z,52.76
2023-04-06T02:31:51.383Z,52.86
2023-04-06T02:34:19.923Z,52.78
2023-04-06T02:36:48.824Z,52.98
2023-04-06T02:39:17.336Z,53.03
2023-04-06T02:41:45.867Z,53.12
2023-04-06T02:44:14.391Z,53.30
2023-04-06T02:46:42.646Z,53.45
2023-04-06T02:49:10.951Z,53.51
2023-04-06T02:51:39.408Z,53.21
2023-04-06T02:54:09.183Z,53.12
2023-04-06T02:56:37.329Z,52.95
2023-04-06T02:59:05.495Z,52.90
2023-04-06T03:01:34.021Z,52.91
2023-04-06T03:04:02.542Z,52.82
2023-04-06T03:06:33.925Z,52.97
2023-04-06T03:09:03.935Z,53.10
2023-04-06T03:11:32.265Z,53.36
2023-04-06T03:14:00.875Z,53.35
2023-04-06T03:16:29.426Z,53.51
2023-04-06T03:18:57.811Z,53.71
2023-04-06T03:21:26.013Z,53.80
2023-04-06T03:23:54.319Z,53.75
2023-04-06T03:26:23.549Z,53.70
2023-04-06T03:28:51.817Z,53.57
2023-04-06T03:31:22.604Z,53.66
2023-04-06T03:33:51.045Z,53.49
2023-04-06T03:36:19.319Z,53.43
2023-04-06T03:38:47.541Z,53.57
2023-04-06T03:41:16.067Z,53.74
2023-04-06T03:43:44.365Z,53.73
2023-04-06T03:46:12.976Z,53.52
2023-04-06T03:48:41.424Z,53.40
2023-04-06T03:51:11.985Z,53.44
2023-04-06T03:53:40.347Z,53.43
2023-04-06T03:56:08.824Z,53.34
2023-04-06T03:58:37.083Z,53.38
2023-04-06T04:01:05.719Z,53.47
2023-04-06T04:03:34.102Z,53.51
2023-04-06T04:06:02.484Z,53.60
2023-04-06T04:08:30.970Z,53.53
2023-04-06T04:10:59.300Z,53.75
2023-04-06T04:13:27.711Z,53.66
2023-04-06T04:15:57.568Z,53.54
2023-04-06T04:18:25.783Z,53.56
2023-04-06T04:20:54.106Z,53.33
2023-04-06T04:42:14.789Z,55.22
2023-04-06T04:44:43.067Z,55.30
2023-04-06T04:47:11.515Z,55.02
2023-04-06T04:49:39.829Z,55.02
2023-04-06T04:52:08.231Z,54.65
2023-04-06T04:54:38.506Z,54.71
2023-04-06T04:57:06.870Z,54.64
2023-04-06T04:59:36.160Z,54.75
2023-04-06T05:02:04.649Z,54.91
2023-04-06T05:04:33.157Z,54.60
2023-04-06T05:07:06.437Z,54.32
2023-04-06T05:09:34.797Z,53.88
2023-04-06T05:12:03.556Z,53.83
2023-04-06T05:14:31.952Z,54.07
2023-04-06T05:17:00.864Z,54.00
2023-04-06T05:19:30.452Z,54.24
2023-04-06T05:21:59.065Z,54.20
2023-04-06T05:24:27.672Z,54.33
2023-04-06T05:26:56.341Z,54.39
2023-04-06T05:29:24.759Z,54.17
2023-04-06T05:31:53.421Z,54.27
2023-04-06T05:34:22.133Z,54.14
2023-04-06T05:36:50.203Z,54.24
2023-04-06T05:39:19.449Z,54.42
2023-04-06T05:41:47.714Z,54.32
2023-04-06T05:44:16.011Z,54.60
2023-04-06T05:46:44.249Z,54.68
2023-04-06T05:49:12.713Z,54.47
2023-04-06T05:51:41.569Z,54.27
2023-04-06T05:54:10.717Z,54.12
2023-04-06T05:56:41.659Z,54.18
2023-04-06T05:59:10.412Z,54.63
2023-04-06T06:01:39.012Z,54.89
2023-04-06T06:04:07.220Z,54.97
2023-04-06T06:06:35.469Z,54.61
2023-04-06T06:09:04.713Z,54.40
2023-04-06T06:11:34.378Z,54.34
2023-04-06T06:14:02.633Z,53.71
2023-04-06T06:16:31.031Z,53.92
2023-04-06T06:18:59.342Z,53.94
2023-04-06T06:21:27.827Z,53.54
2023-04-06T06:23:56.074Z,53.43
2023-04-06T06:26:24.251Z,53.23
2023-04-06T06:28:52.354Z,53.06
2023-04-06T06:31:24.310Z,52.95
2023-04-06T06:33:52.895Z,52.47
2023-04-06T06:36:21.182Z,52.37
2023-04-06T06:38:49.491Z,52.01
2023-04-06T06:41:17.757Z,52.28
2023-04-06T06:43:46.421Z,52.02
2023-04-06T06:46:17.514Z,51.19
2023-04-06T06:48:48.656Z,51.34
2023-04-06T06:51:17.043Z,50.81
2023-04-06T06:53:45.268Z,50.79
2023-04-06T06:56:14.076Z,50.16
2023-04-06T06:58:42.470Z,50.02
2023-04-06T07:01:11.132Z,49.80
2023-04-06T07:03:39.830Z,49.33
2023-04-06T07:06:10.366Z,49.31
2023-04-06T07:08:38.508Z,49.05
2023-04-06T07:11:07.042Z,48.53
2023-04-06T07:13:35.582Z,48.70
2023-04-06T07:16:06.552Z,48.82
2023-04-06T07:18:36.249Z,48.48
2023-04-06T07:21:05.046Z,48.41
2023-04-06T07:23:33.019Z,48.11
2023-04-06T07:26:05.040Z,47.33
2023-04-06T07:28:33.828Z,46.69
2023-04-06T07:31:07.208Z,46.18
